createdAt,value
2023-01-30T00:00:06.161Z,21.10
2023-01-30T00:05:29.258Z,22.50
2023-01-30T00:10:32.478Z,22.20
2023-01-30T00:15:36.702Z,24.30
2023-01-30T00:20:40.106Z,26.60
2023-01-30T00:25:46.217Z,23.90
2023-01-30T00:30:51.289Z,26.80
2023-01-30T00:35:56.475Z,24.30
2023-01-30T00:40:59.814Z,25.40
2023-01-30T00:46:28.152Z,27.10
2023-01-30T00:51:31.311Z,26.80
2023-01-30T00:56:35.038Z,28.60
2023-01-30T01:01:38.581Z,26.50
2023-01-30T01:06:41.848Z,28.60
2023-01-30T01:11:45.171Z,28.60
2023-01-30T01:16:48.554Z,28.40
2023-01-30T01:21:52.069Z,29.90
2023-01-30T01:26:55.514Z,26.60
2023-01-30T01:31:58.841Z,33.10
2023-01-30T01:37:02.447Z,33.00
2023-01-30T01:42:16.658Z,32.30
2023-01-30T01:47:20.947Z,34.70
2023-01-30T01:52:24.355Z,35.40
2023-01-30T01:57:34.872Z,32.30
2023-01-30T02:02:59.786Z,33.70
2023-01-30T02:08:07.915Z,31.90
2023-01-30T02:13:11.287Z,34.50
2023-01-30T02:18:15.624Z,34.00
2023-01-30T02:23:43.941Z,34.00
2023-01-30T02:29:07.710Z,35.20
2023-01-30T02:34:35.222Z,34.90
2023-01-30T02:40:01.333Z,30.10
2023-01-30T02:45:30.328Z,38.10
2023-01-30T02:50:36.167Z,36.80
2023-01-30T03:00:47.507Z,33.90
2023-01-30T03:06:05.459Z,31.10
2023-01-30T03:11:10.836Z,30.80
2023-01-30T03:16:41.207Z,26.00
2023-01-30T03:21:46.067Z,26.80
2023-01-30T03:26:55.288Z,27.70
2023-01-30T03:31:58.725Z,26.20
2023-01-30T03:37:03.283Z,28.00
2023-01-30T03:42:10.497Z,24.80
2023-01-30T03:47:15.224Z,23.10
2023-01-30T03:52:18.826Z,22.80
2023-01-30T03:57:22.167Z,20.60
2023-01-30T04:02:26.525Z,22.70
2023-01-30T04:07:30.534Z,22.70
2023-01-30T04:12:34.148Z,20.80
2023-01-30T04:17:38.002Z,22.60
2023-01-30T04:23:01.738Z,21.90
2023-01-30T04:28:07.154Z,22.00
2023-01-30T04:33:13.450Z,21.60
2023-01-30T04:38:16.705Z,17.90
2023-01-30T04:43:22.216Z,18.50
2023-01-30T04:48:28.547Z,19.60
2023-01-30T04:53:33.188Z,16.80
2023-01-30T04:58:36.692Z,17.20
2023-01-30T05:03:39.970Z,22.60
2023-01-30T05:08:44.786Z,22.30
2023-01-30T05:13:50.219Z,18.10
2023-01-30T05:18:53.517Z,17.10
2023-01-30T05:23:57.693Z,17.70
2023-01-30T05:29:01.177Z,14.40
2023-01-30T05:34:05.229Z,17.40
2023-01-30T05:39:08.882Z,15.40
2023-01-30T05:44:12.697Z,15.40
2023-01-30T05:49:22.750Z,15.80
2023-01-30T05:54:26.128Z,17.60
2023-01-30T05:59:29.411Z,20.90
2023-01-30T06:04:32.686Z,19.70
2023-01-30T06:09:35.980Z,21.20
2023-01-30T06:14:39.498Z,17.70
2023-01-30T06:19:42.742Z,19.90
2023-01-30T06:24:46.186Z,23.60
2023-01-30T06:29:49.523Z,21.70
2023-01-30T06:34:52.813Z,20.30
2023-01-30T06:39:56.185Z,31.60
2023-01-30T06:44:59.478Z,21.70
2023-01-30T06:50:03.016Z,21.10
2023-01-30T06:55:06.978Z,24.20
2023-01-30T07:00:16.407Z,24.90
2023-01-30T07:05:20.042Z,24.70
2023-01-30T07:10:24.048Z,25.70
2023-01-30T07:15:27.725Z,26.10
2023-01-30T07:20:31.609Z,24.20
2023-01-30T07:25:35.005Z,20.10
2023-01-30T07:30:38.445Z,22.20
2023-01-30T07:35:41.922Z,23.70
2023-01-30T07:40:45.365Z,25.00
2023-01-30T07:45:49.422Z,21.10
2023-01-30T07:50:56.976Z,23.80
2023-01-30T07:56:01.179Z,26.40
2023-01-30T08:01:05.087Z,19.00
2023-01-30T08:06:08.781Z,21.80
2023-01-30T08:11:12.291Z,20.60
2023-01-30T08:16:15.793Z,19.20
2023-01-30T08:21:20.100Z,24.30
2023-01-30T08:26:24.109Z,21.10
2023-01-30T08:31:28.355Z,17.30
2023-01-30T08:36:33.009Z,20.30
2023-01-30T08:41:36.901Z,17.60
2023-01-30T08:46:41.015Z,14.80
2023-01-30T08:51:45.258Z,15.20
2023-01-30T08:56:52.661Z,19.10
2023-01-30T09:01:57.411Z,15.30
2023-01-30T09:07:00.729Z,15.40
2023-01-30T09:12:04.466Z,15.00
2023-01-30T09:17:07.810Z,19.00
2023-01-30T09:22:11.159Z,16.20
2023-01-30T09:27:15.491Z,15.90
2023-01-30T09:32:19.214Z,13.90
2023-01-30T09:37:23.450Z,19.50
2023-01-30T09:42:59.250Z,15.10
2023-01-30T09:48:30.466Z,16.40
2023-01-30T09:53:43.291Z,14.20
2023-01-30T09:58:53.791Z,22.70
2023-01-30T10:04:19.523Z,15.20
2023-01-30T10:09:41.677Z,15.60
2023-01-30T10:15:05.707Z,15.10
2023-01-30T10:20:33.552Z,15.10
2023-01-30T10:25:39.628Z,14.40
2023-01-30T10:30:46.572Z,15.60
2023-01-30T10:36:08.654Z,16.40
2023-01-30T10:41:20.070Z,14.00
2023-01-30T10:46:48.929Z,17.00
2023-01-30T10:52:13.031Z,16.20
2023-01-30T10:57:17.819Z,14.60
2023-01-30T11:02:31.955Z,17.30
2023-01-30T11:07:36.445Z,12.80
2023-01-30T11:12:43.928Z,15.50
2023-01-30T11:17:50.091Z,14.40
2023-01-30T11:23:27.630Z,15.30
2023-01-30T11:28:40.520Z,17.00
2023-01-30T11:34:02.540Z,16.20
2023-01-30T11:39:16.520Z,14.30
2023-01-30T11:44:29.473Z,14.90
2023-01-30T11:49:47.297Z,16.60
2023-01-30T11:55:14.082Z,20.00
2023-01-30T12:00:23.051Z,18.40
2023-01-30T12:05:37.978Z,16.30
2023-01-30T12:10:46.007Z,17.00
2023-01-30T12:16:07.859Z,16.00
2023-01-30T12:21:28.470Z,13.80
2023-01-30T12:26:54.034Z,13.90
2023-01-30T12:32:10.471Z,13.40
2023-01-30T12:37:19.916Z,12.70
2023-01-30T12:42:57.219Z,11.50
2023-01-30T12:48:24.397Z,13.60
2023-01-30T12:53:55.735Z,13.70
2023-01-30T12:59:19.490Z,15.90
2023-01-30T13:05:07.482Z,16.20
2023-01-30T13:10:23.749Z,16.00
2023-01-30T13:15:33.310Z,15.10
2023-01-30T13:21:00.687Z,13.90
2023-01-30T13:26:16.548Z,13.60
2023-01-30T13:36:53.077Z,15.40
2023-01-30T13:41:59.815Z,12.30
2023-01-30T13:47:23.174Z,12.80
2023-01-30T13:52:26.880Z,12.80
2023-01-30T13:57:42.125Z,11.80
2023-01-30T14:03:05.272Z,14.40
2023-01-30T14:08:22.394Z,18.80
2023-01-30T14:13:30.648Z,10.90
2023-01-30T14:18:40.749Z,12.50
2023-01-30T14:23:59.124Z,12.30
2023-01-30T14:29:03.861Z,13.30
2023-01-30T14:34:40.581Z,13.30
2023-01-30T14:39:52.218Z,14.80
2023-01-30T14:45:00.952Z,15.20
2023-01-30T14:50:19.150Z,14.70
2023-01-30T14:55:30.296Z,14.90
2023-01-30T15:00:38.079Z,13.30
2023-01-30T15:05:47.316Z,14.60
2023-01-30T15:11:13.341Z,13.60
2023-01-30T15:16:38.889Z,15.10
2023-01-30T15:22:14.455Z,14.00
2023-01-30T15:27:32.697Z,10.60
2023-01-30T15:32:36.811Z,13.60
2023-01-30T15:37:48.433Z,11.40
2023-01-30T15:42:58.864Z,11.30
2023-01-30T15:48:34.850Z,12.90
2023-01-30T15:53:45.149Z,10.60
2023-01-30T15:58:50.207Z,11.50
2023-01-30T16:03:55.598Z,12.60
2023-01-30T16:09:06.337Z,12.10
2023-01-30T16:14:18.841Z,13.80
2023-01-30T16:19:29.750Z,11.80
2023-01-30T16:24:37.016Z,11.30
2023-01-30T16:29:51.452Z,13.80
2023-01-30T16:35:17.722Z,14.60
2023-01-30T16:40:25.905Z,14.50
2023-01-30T16:45:38.102Z,11.80
2023-01-30T16:50:43.808Z,12.70
2023-01-30T16:56:10.212Z,14.70
2023-01-30T17:01:14.174Z,12.40
2023-01-30T17:06:40.107Z,12.80
2023-01-30T17:11:44.293Z,12.90
2023-01-30T17:17:08.495Z,12.30
2023-01-30T17:22:24.784Z,12.10
2023-01-30T17:27:30.576Z,15.40
2023-01-30T17:32:35.449Z,12.80
2023-01-30T17:37:40.317Z,13.20
2023-01-30T17:42:45.346Z,14.50
2023-01-30T17:47:50.882Z,11.60
2023-01-30T17:52:55.658Z,12.20
2023-01-30T17:58:01.645Z,12.50
2023-01-30T18:03:05.941Z,11.50
2023-01-30T18:08:09.875Z,11.10
2023-01-30T18:13:14.172Z,10.50
2023-01-30T18:18:18.667Z,12.50
2023-01-30T18:23:22.039Z,11.60
2023-01-30T18:28:26.425Z,12.90
2023-01-30T18:33:33.129Z,12.10
2023-01-30T18:43:40.241Z,10.60
2023-01-30T18:48:45.127Z,11.00
2023-01-30T18:53:51.375Z,10.00
2023-01-30T18:58:56.546Z,12.60
2023-01-30T19:04:02.093Z,8.50
2023-01-30T19:09:17.403Z,10.60
2023-01-30T19:14:20.860Z,9.70
2023-01-30T19:19:25.011Z,8.00
2023-01-30T19:24:28.368Z,8.40
2023-01-30T19:29:31.691Z,9.40
2023-01-30T19:34:35.128Z,8.80
2023-01-30T19:39:38.492Z,9.30
2023-01-30T19:44:42.954Z,11.30
2023-01-30T19:49:46.244Z,11.50
2023-01-30T19:54:49.738Z,10.60
2023-01-30T19:59:53.047Z,11.90
2023-01-30T20:04:57.434Z,13.30
2023-01-30T20:10:00.930Z,11.80
2023-01-30T20:15:06.195Z,11.90
2023-01-30T20:20:10.666Z,10.10
2023-01-30T20:26:26.630Z,12.20
2023-01-30T20:31:31.057Z,10.80
2023-01-30T20:36:34.720Z,12.60
2023-01-30T20:41:38.808Z,11.30
2023-01-30T20:46:45.012Z,13.90
2023-01-30T20:51:51.278Z,15.20
2023-01-30T20:56:54.664Z,11.20
2023-01-30T21:01:58.025Z,11.70
2023-01-30T21:07:01.696Z,9.80
2023-01-30T21:12:05.608Z,9.40
2023-01-30T21:17:09.118Z,11.70
2023-01-30T21:22:12.402Z,9.70
2023-01-30T21:27:15.631Z,11.10
2023-01-30T21:32:19.399Z,8.70
2023-01-30T21:37:41.213Z,10.10
2023-01-30T21:43:03.555Z,10.20
2023-01-30T21:48:06.876Z,10.50
2023-01-30T21:53:10.120Z,8.80
2023-01-30T21:58:13.529Z,11.20
2023-01-30T22:03:16.839Z,12.00
2023-01-30T22:08:20.001Z,9.10
2023-01-30T22:13:23.306Z,9.40
2023-01-30T22:18:26.506Z,11.30
2023-01-30T22:23:38.543Z,12.40
2023-01-30T22:28:42.032Z,9.20
2023-01-30T22:33:51.517Z,9.50
2023-01-30T22:38:55.445Z,8.00
2023-01-30T22:43:59.980Z,9.00
2023-01-30T22:49:05.584Z,10.20
2023-01-30T22:54:16.120Z,13.50
2023-01-30T22:59:19.776Z,12.60
2023-01-30T23:04:23.882Z,11.50
2023-01-30T23:09:27.287Z,10.50
2023-01-30T23:14:30.563Z,14.60
2023-01-30T23:19:33.720Z,11.90
2023-01-30T23:24:37.105Z,14.10
2023-01-30T23:29:40.313Z,12.80
2023-01-30T23:34:43.542Z,10.90
2023-01-30T23:39:46.870Z,10.90
2023-01-30T23:44:53.221Z,14.30
2023-01-30T23:49:56.579Z,13.60
2023-01-30T23:55:00.176Z,11.30
